CFG2344 EDDF-LPMA
Flight info
| Callsign | CFG2344 |
|---|---|
| Flight time | N/A |
| Altitude | 31000 |
| Route | SOBRA2L/18 SOBRA Y180 DIK UN857 TOLVU DCT RAPOR DCT GIMER DCT ESTOC UT300 PON UN872 TERPO/N0447F330 UN872 ERIGA UN741 AZFIC DCT LOTEE DCT AGADO DCT LIDRO |
| Aircraft | A321/M-SDE3FGHIRWY/LB1 |
Departure
| Time | 2026-05-05 15:23 |
|---|---|
| Airport | Frankfurt Main Airport (EDDF) |
Arrival
| Time | N/A |
|---|---|
| Airport | Cristiano Ronaldo International Airport (LPMA) |
| Time | Latitude | Longitude | Altitude | Speed | Heading |
|---|---|---|---|---|---|
| 2026-05-05 14:52 | 50.04858 | 8.57523 | 360 ft | 0 kts | 203° |
| 2026-05-05 15:08 | 50.04863 | 8.57526 | 364 ft | 4 kts | 204° |
| 2026-05-05 15:08 | 50.04887 | 8.57543 | 361 ft | 4 kts | 203° |
| 2026-05-05 15:08 | 50.04912 | 8.57556 | 360 ft | 4 kts | 181° |
| 2026-05-05 15:09 | 50.04929 | 8.57549 | 363 ft | 3 kts | 115° |
| 2026-05-05 15:09 | 50.04920 | 8.57577 | 365 ft | 4 kts | 115° |
| 2026-05-05 15:09 | 50.04909 | 8.57615 | 361 ft | 4 kts | 114° |
| 2026-05-05 15:09 | 50.04898 | 8.57653 | 362 ft | 4 kts | 114° |
| 2026-05-05 15:10 | 50.04887 | 8.57692 | 365 ft | 4 kts | 114° |
| 2026-05-05 15:10 | 50.04876 | 8.57730 | 364 ft | 4 kts | 113° |
| 2026-05-05 15:10 | 50.04866 | 8.57769 | 362 ft | 4 kts | 113° |
| 2026-05-05 15:10 | 50.04855 | 8.57807 | 361 ft | 3 kts | 113° |
| 2026-05-05 15:11 | 50.04854 | 8.57812 | 360 ft | 2 kts | 113° |
| 2026-05-05 15:14 | 50.04854 | 8.57813 | 360 ft | 0 kts | 113° |
| 2026-05-05 15:14 | 50.04849 | 8.57829 | 359 ft | 3 kts | 113° |
| 2026-05-05 15:15 | 50.04834 | 8.57874 | 365 ft | 6 kts | 124° |
| 2026-05-05 15:15 | 50.04794 | 8.57913 | 360 ft | 8 kts | 157° |
| 2026-05-05 15:15 | 50.04727 | 8.57915 | 359 ft | 11 kts | 203° |
| 2026-05-05 15:15 | 50.04688 | 8.57812 | 357 ft | 10 kts | 250° |
| 2026-05-05 15:16 | 50.04669 | 8.57735 | 362 ft | 5 kts | 249° |
| 2026-05-05 15:16 | 50.04657 | 8.57688 | 361 ft | 6 kts | 249° |
| 2026-05-05 15:16 | 50.04638 | 8.57608 | 359 ft | 10 kts | 250° |
| 2026-05-05 15:16 | 50.04608 | 8.57483 | 360 ft | 15 kts | 249° |
| 2026-05-05 15:17 | 50.04567 | 8.57310 | 359 ft | 19 kts | 249° |
| 2026-05-05 15:17 | 50.04516 | 8.57095 | 358 ft | 23 kts | 250° |
| 2026-05-05 15:17 | 50.04458 | 8.56853 | 361 ft | 23 kts | 249° |
| 2026-05-05 15:17 | 50.04402 | 8.56616 | 361 ft | 24 kts | 250° |
| 2026-05-05 15:18 | 50.04344 | 8.56374 | 360 ft | 24 kts | 250° |
| 2026-05-05 15:18 | 50.04286 | 8.56131 | 357 ft | 24 kts | 249° |
| 2026-05-05 15:18 | 50.04227 | 8.55889 | 356 ft | 24 kts | 249° |
| 2026-05-05 15:18 | 50.04169 | 8.55648 | 352 ft | 24 kts | 250° |
| 2026-05-05 15:19 | 50.04111 | 8.55403 | 354 ft | 24 kts | 249° |
| 2026-05-05 15:19 | 50.04055 | 8.55169 | 355 ft | 22 kts | 249° |
| 2026-05-05 15:19 | 50.04001 | 8.54944 | 356 ft | 22 kts | 250° |
| 2026-05-05 15:19 | 50.03947 | 8.54716 | 354 ft | 23 kts | 249° |
| 2026-05-05 15:20 | 50.03891 | 8.54482 | 355 ft | 23 kts | 250° |
| 2026-05-05 15:20 | 50.03813 | 8.54261 | 347 ft | 23 kts | 239° |
| 2026-05-05 15:20 | 50.03755 | 8.54031 | 352 ft | 23 kts | 249° |
| 2026-05-05 15:20 | 50.03699 | 8.53801 | 345 ft | 23 kts | 250° |
| 2026-05-05 15:21 | 50.03643 | 8.53572 | 336 ft | 23 kts | 248° |
| 2026-05-05 15:21 | 50.03586 | 8.53342 | 335 ft | 23 kts | 250° |
| 2026-05-05 15:21 | 50.03532 | 8.53115 | 335 ft | 23 kts | 250° |
| 2026-05-05 15:21 | 50.03477 | 8.52885 | 332 ft | 23 kts | 247° |
| 2026-05-05 15:22 | 50.03417 | 8.52662 | 332 ft | 21 kts | 249° |
| 2026-05-05 15:22 | 50.03364 | 8.52591 | 334 ft | 4 kts | 175° |
| 2026-05-05 15:22 | 50.03266 | 8.52594 | 333 ft | 41 kts | 180° |
| 2026-05-05 15:22 | 50.02760 | 8.52601 | 334 ft | 102 kts | 180° |
| 2026-05-05 15:23 | 50.01876 | 8.52609 | 335 ft | 150 kts | 180° |
| 2026-05-05 15:23 | 50.00697 | 8.52620 | 371 ft | 184 kts | 184° |
| 2026-05-05 15:23 | 49.99432 | 8.52648 | 1031 ft | 182 kts | 180° |
| 2026-05-05 15:23 | 49.98175 | 8.52727 | 1711 ft | 179 kts | 180° |
| 2026-05-05 15:24 | 49.96930 | 8.52824 | 1942 ft | 187 kts | 180° |
| 2026-05-05 15:24 | 49.95583 | 8.52919 | 2090 ft | 201 kts | 179° |
| 2026-05-05 15:24 | 49.94143 | 8.53020 | 2208 ft | 213 kts | 179° |
| 2026-05-05 15:24 | 49.92619 | 8.53124 | 2457 ft | 223 kts | 179° |
| 2026-05-05 15:25 | 49.91060 | 8.53233 | 2963 ft | 225 kts | 179° |
| 2026-05-05 15:25 | 49.89496 | 8.53341 | 3452 ft | 226 kts | 179° |
| 2026-05-05 15:25 | 49.87919 | 8.53415 | 3930 ft | 227 kts | 185° |
| 2026-05-05 15:25 | 49.86359 | 8.52955 | 4298 ft | 233 kts | 200° |
| 2026-05-05 15:26 | 49.84784 | 8.52063 | 4468 ft | 251 kts | 201° |
| 2026-05-05 15:26 | 49.83110 | 8.51111 | 4899 ft | 259 kts | 201° |
| 2026-05-05 15:26 | 49.81428 | 8.50154 | 5477 ft | 262 kts | 201° |
| 2026-05-05 15:26 | 49.79735 | 8.49072 | 6079 ft | 265 kts | 211° |
| 2026-05-05 15:27 | 49.78379 | 8.47158 | 6642 ft | 268 kts | 235° |
| 2026-05-05 15:27 | 49.77677 | 8.44484 | 7185 ft | 274 kts | 261° |
| 2026-05-05 15:27 | 49.77794 | 8.41529 | 7731 ft | 279 kts | 280° |
| 2026-05-05 15:27 | 49.78200 | 8.38571 | 8294 ft | 282 kts | 280° |
| 2026-05-05 15:28 | 49.78612 | 8.35584 | 8848 ft | 286 kts | 280° |
| 2026-05-05 15:28 | 49.79026 | 8.32561 | 9412 ft | 288 kts | 279° |
| 2026-05-05 15:28 | 49.79439 | 8.29501 | 9930 ft | 292 kts | 279° |
| 2026-05-05 15:28 | 49.79853 | 8.26400 | 10136 ft | 307 kts | 279° |
| 2026-05-05 15:29 | 49.80294 | 8.23075 | 10254 ft | 324 kts | 279° |
| 2026-05-05 15:29 | 49.80759 | 8.19571 | 10375 ft | 341 kts | 279° |
| 2026-05-05 15:29 | 49.81246 | 8.15884 | 10550 ft | 355 kts | 279° |
| 2026-05-05 15:29 | 49.81746 | 8.12116 | 10953 ft | 360 kts | 280° |
| 2026-05-05 15:30 | 49.82254 | 8.08292 | 11440 ft | 364 kts | 280° |
| 2026-05-05 15:30 | 49.82761 | 8.04434 | 11945 ft | 367 kts | 279° |
| 2026-05-05 15:30 | 49.83269 | 8.00546 | 12443 ft | 370 kts | 279° |
| 2026-05-05 15:30 | 49.83781 | 7.96625 | 12969 ft | 373 kts | 280° |
| 2026-05-05 15:31 | 49.84296 | 7.92670 | 13472 ft | 376 kts | 280° |
| 2026-05-05 15:31 | 49.84807 | 7.88738 | 13927 ft | 379 kts | 280° |
| 2026-05-05 15:31 | 49.85328 | 7.84723 | 14373 ft | 381 kts | 280° |
| 2026-05-05 15:31 | 49.85850 | 7.80680 | 14819 ft | 384 kts | 279° |
| 2026-05-05 15:32 | 49.86370 | 7.76614 | 15258 ft | 386 kts | 279° |
| 2026-05-05 15:32 | 49.86895 | 7.72521 | 15692 ft | 389 kts | 279° |
| 2026-05-05 15:32 | 49.87453 | 7.68405 | 16125 ft | 391 kts | 281° |
| 2026-05-05 15:32 | 49.87849 | 7.65743 | 16400 ft | 393 kts | 282° |
| 2026-05-05 15:33 | 49.88500 | 7.61607 | 16825 ft | 395 kts | 283° |
| 2026-05-05 15:33 | 49.89170 | 7.57460 | 17247 ft | 398 kts | 283° |
| 2026-05-05 15:33 | 49.89840 | 7.53291 | 17646 ft | 400 kts | 282° |
| 2026-05-05 15:33 | 49.90494 | 7.49140 | 18049 ft | 402 kts | 282° |
| 2026-05-05 15:34 | 49.91151 | 7.44906 | 18413 ft | 404 kts | 282° |
| 2026-05-05 15:34 | 49.91803 | 7.40658 | 18765 ft | 406 kts | 282° |
| 2026-05-05 15:34 | 49.92453 | 7.36383 | 19110 ft | 408 kts | 282° |
| 2026-05-05 15:34 | 49.93105 | 7.32078 | 19459 ft | 410 kts | 282° |
| 2026-05-05 15:35 | 49.93756 | 7.27767 | 19806 ft | 412 kts | 282° |
| 2026-05-05 15:35 | 49.94408 | 7.23421 | 20154 ft | 414 kts | 282° |
| 2026-05-05 15:35 | 49.95063 | 7.19064 | 20490 ft | 415 kts | 282° |
| 2026-05-05 15:35 | 49.95710 | 7.14749 | 20820 ft | 417 kts | 282° |
| 2026-05-05 15:36 | 49.96369 | 7.10344 | 21151 ft | 419 kts | 282° |
| 2026-05-05 15:36 | 49.97029 | 7.05919 | 21468 ft | 422 kts | 282° |
| 2026-05-05 15:36 | 49.97690 | 7.01477 | 21800 ft | 424 kts | 282° |
| 2026-05-05 15:36 | 49.98352 | 6.97005 | 22099 ft | 426 kts | 281° |
| 2026-05-05 15:37 | 49.98982 | 6.92501 | 22412 ft | 427 kts | 277° |
| 2026-05-05 15:37 | 49.99236 | 6.87900 | 22730 ft | 428 kts | 268° |
| 2026-05-05 15:37 | 49.99125 | 6.83269 | 23042 ft | 429 kts | 266° |
| 2026-05-05 15:37 | 49.98989 | 6.78692 | 23356 ft | 431 kts | 266° |
| 2026-05-05 15:38 | 49.98847 | 6.74033 | 23622 ft | 433 kts | 265° |
| 2026-05-05 15:38 | 49.98700 | 6.69354 | 23892 ft | 434 kts | 265° |
| 2026-05-05 15:38 | 49.98551 | 6.64661 | 24142 ft | 436 kts | 265° |
| 2026-05-05 15:38 | 49.98380 | 6.59965 | 24397 ft | 437 kts | 262° |
| 2026-05-05 15:39 | 49.97841 | 6.55318 | 24650 ft | 436 kts | 253° |
| 2026-05-05 15:39 | 49.96962 | 6.51342 | 24874 ft | 435 kts | 245° |
| 2026-05-05 15:39 | 49.95743 | 6.47025 | 25127 ft | 437 kts | 244° |
| 2026-05-05 15:39 | 49.94540 | 6.42757 | 25376 ft | 438 kts | 244° |
| 2026-05-05 15:40 | 49.93322 | 6.38418 | 25628 ft | 440 kts | 244° |
| 2026-05-05 15:40 | 49.92096 | 6.34061 | 25879 ft | 441 kts | 244° |
| 2026-05-05 15:40 | 49.90865 | 6.29692 | 26130 ft | 443 kts | 244° |
| 2026-05-05 15:40 | 49.89624 | 6.25317 | 26378 ft | 444 kts | 244° |
| 2026-05-05 15:41 | 49.88356 | 6.20946 | 26593 ft | 446 kts | 244° |
| 2026-05-05 15:41 | 49.87098 | 6.16540 | 26828 ft | 447 kts | 244° |
| 2026-05-05 15:41 | 49.85700 | 6.12243 | 27034 ft | 447 kts | 237° |
| 2026-05-05 15:41 | 49.83966 | 6.08244 | 27240 ft | 447 kts | 232° |
| 2026-05-05 15:42 | 49.82168 | 6.04304 | 27445 ft | 449 kts | 232° |
| 2026-05-05 15:42 | 49.80380 | 6.00410 | 27646 ft | 451 kts | 232° |
| 2026-05-05 15:42 | 49.78552 | 5.96450 | 27852 ft | 452 kts | 232° |
| 2026-05-05 15:42 | 49.76716 | 5.92485 | 28048 ft | 454 kts | 232° |
| 2026-05-05 15:43 | 49.74934 | 5.88453 | 28295 ft | 456 kts | 237° |
| 2026-05-05 15:43 | 49.73509 | 5.84076 | 28582 ft | 458 kts | 245° |
| 2026-05-05 15:43 | 49.72418 | 5.79439 | 28836 ft | 459 kts | 248° |
| 2026-05-05 15:43 | 49.71349 | 5.74794 | 29099 ft | 459 kts | 248° |
| 2026-05-05 15:44 | 49.70273 | 5.70141 | 29349 ft | 459 kts | 247° |
| 2026-05-05 15:44 | 49.69207 | 5.65552 | 29599 ft | 460 kts | 247° |
| 2026-05-05 15:44 | 49.68126 | 5.60921 | 29848 ft | 460 kts | 247° |
| 2026-05-05 15:44 | 49.67033 | 5.56271 | 30090 ft | 460 kts | 247° |
| 2026-05-05 15:45 | 49.65942 | 5.51648 | 30342 ft | 459 kts | 246° |
| 2026-05-05 15:45 | 49.64847 | 5.47008 | 30589 ft | 459 kts | 246° |
| 2026-05-05 15:45 | 49.63759 | 5.42394 | 30850 ft | 458 kts | 246° |
| 2026-05-05 15:45 | 49.62670 | 5.37782 | 31113 ft | 456 kts | 246° |
| 2026-05-05 15:46 | 49.61610 | 5.33171 | 31370 ft | 456 kts | 248° |
| 2026-05-05 15:46 | 49.60615 | 5.28605 | 31629 ft | 455 kts | 248° |
| 2026-05-05 15:46 | 49.59639 | 5.23972 | 31890 ft | 454 kts | 249° |
| 2026-05-05 15:46 | 49.58689 | 5.19328 | 32136 ft | 454 kts | 250° |
| 2026-05-05 15:47 | 49.57821 | 5.14661 | 32393 ft | 453 kts | 251° |
| 2026-05-05 15:47 | 49.57280 | 5.11548 | 32551 ft | 453 kts | 252° |
| 2026-05-05 15:47 | 49.56227 | 5.05264 | 32795 ft | 453 kts | 252° |
| 2026-05-05 15:48 | 49.54638 | 4.95878 | 32822 ft | 452 kts | 251° |
| 2026-05-05 15:48 | 49.52979 | 4.86537 | 32817 ft | 453 kts | 251° |
| 2026-05-05 15:49 | 49.51287 | 4.77273 | 32822 ft | 452 kts | 251° |
| 2026-05-05 15:49 | 49.49586 | 4.67955 | 32818 ft | 453 kts | 251° |
| 2026-05-05 15:50 | 49.47892 | 4.58626 | 32819 ft | 453 kts | 251° |
| 2026-05-05 15:50 | 49.46193 | 4.49290 | 32821 ft | 454 kts | 251° |
| 2026-05-05 15:51 | 49.44483 | 4.39948 | 32822 ft | 454 kts | 251° |
| 2026-05-05 15:51 | 49.42772 | 4.30681 | 32816 ft | 454 kts | 251° |
| 2026-05-05 15:52 | 49.41043 | 4.21354 | 32814 ft | 454 kts | 251° |
| 2026-05-05 15:52 | 49.39299 | 4.12042 | 32811 ft | 454 kts | 251° |
| 2026-05-05 15:53 | 49.37550 | 4.02733 | 32815 ft | 454 kts | 251° |
| 2026-05-05 15:53 | 49.35861 | 3.93455 | 32820 ft | 455 kts | 253° |
| 2026-05-05 15:54 | 49.34540 | 3.84281 | 32828 ft | 457 kts | 256° |
| 2026-05-05 15:54 | 49.33289 | 3.74740 | 32822 ft | 455 kts | 256° |
| 2026-05-05 15:55 | 49.31971 | 3.65256 | 32823 ft | 455 kts | 255° |
| 2026-05-05 15:55 | 49.30592 | 3.55865 | 32822 ft | 455 kts | 255° |
| 2026-05-05 15:56 | 49.29196 | 3.46417 | 32831 ft | 455 kts | 255° |
| 2026-05-05 15:56 | 49.27838 | 3.37135 | 32831 ft | 454 kts | 255° |
| 2026-05-05 15:57 | 49.26446 | 3.27694 | 32835 ft | 454 kts | 255° |
| 2026-05-05 15:57 | 49.25034 | 3.18273 | 32828 ft | 454 kts | 255° |
| 2026-05-05 15:58 | 49.23629 | 3.08915 | 32831 ft | 454 kts | 255° |
| 2026-05-05 15:58 | 49.22209 | 2.99490 | 32831 ft | 454 kts | 255° |
| 2026-05-05 15:59 | 49.20783 | 2.90089 | 32834 ft | 455 kts | 255° |
| 2026-05-05 15:59 | 49.19344 | 2.80661 | 32838 ft | 455 kts | 255° |
| 2026-05-05 16:00 | 49.17909 | 2.71307 | 32837 ft | 455 kts | 255° |
| 2026-05-05 16:00 | 49.16455 | 2.61902 | 32844 ft | 455 kts | 255° |
| 2026-05-05 16:01 | 49.14996 | 2.52493 | 32845 ft | 455 kts | 255° |
| 2026-05-05 16:01 | 49.13532 | 2.43086 | 32846 ft | 455 kts | 255° |
| 2026-05-05 16:02 | 49.12427 | 2.33693 | 32840 ft | 457 kts | 260° |
| 2026-05-05 16:02 | 49.11551 | 2.24164 | 32841 ft | 457 kts | 260° |
| 2026-05-05 16:03 | 49.10652 | 2.14571 | 32843 ft | 457 kts | 260° |
| 2026-05-05 16:03 | 49.09636 | 2.05017 | 32836 ft | 455 kts | 253° |
| 2026-05-05 16:04 | 49.07346 | 1.96090 | 32835 ft | 452 kts | 243° |
| 2026-05-05 16:04 | 49.04723 | 1.87387 | 32842 ft | 452 kts | 243° |
| 2026-05-05 16:05 | 49.02126 | 1.78730 | 32842 ft | 452 kts | 243° |
| 2026-05-05 16:05 | 48.99499 | 1.70031 | 32842 ft | 452 kts | 243° |
| 2026-05-05 16:06 | 48.96855 | 1.61336 | 32841 ft | 453 kts | 243° |
| 2026-05-05 16:06 | 48.94198 | 1.52638 | 32842 ft | 453 kts | 243° |
| 2026-05-05 16:07 | 48.91536 | 1.43949 | 32836 ft | 454 kts | 243° |
| 2026-05-05 16:07 | 48.88885 | 1.35315 | 32841 ft | 454 kts | 243° |
| 2026-05-05 16:08 | 48.86204 | 1.26617 | 32842 ft | 455 kts | 243° |
| 2026-05-05 16:08 | 48.83518 | 1.17931 | 32849 ft | 455 kts | 242° |
| 2026-05-05 16:09 | 48.80822 | 1.09249 | 32856 ft | 455 kts | 242° |
| 2026-05-05 16:09 | 48.78133 | 1.00635 | 32868 ft | 455 kts | 242° |
| 2026-05-05 16:10 | 48.75426 | 0.91986 | 32868 ft | 454 kts | 242° |
| 2026-05-05 16:10 | 48.72358 | 0.83679 | 32875 ft | 451 kts | 236° |
| 2026-05-05 16:11 | 48.69078 | 0.75569 | 32877 ft | 451 kts | 236° |
| 2026-05-05 16:12 | 48.62532 | 0.59459 | 32874 ft | 450 kts | 236° |
| 2026-05-05 16:13 | 48.54312 | 0.39350 | 32884 ft | 450 kts | 236° |
| 2026-05-05 16:13 | 48.51009 | 0.31356 | 32885 ft | 449 kts | 236° |
| 2026-05-05 16:14 | 48.44433 | 0.15434 | 32888 ft | 448 kts | 236° |
| 2026-05-05 16:15 | 48.37819 | -0.00472 | 32892 ft | 448 kts | 235° |
| 2026-05-05 16:16 | 48.30743 | -0.15704 | 32895 ft | 445 kts | 230° |
| 2026-05-05 16:17 | 48.25083 | -0.26739 | 32895 ft | 444 kts | 230° |
| 2026-05-05 16:18 | 48.19451 | -0.37789 | 32894 ft | 444 kts | 230° |
| 2026-05-05 16:19 | 48.13833 | -0.48760 | 32894 ft | 444 kts | 229° |
| 2026-05-05 16:19 | 48.08320 | -0.59498 | 32901 ft | 444 kts | 230° |
| 2026-05-05 16:20 | 48.00792 | -0.74062 | 32901 ft | 444 kts | 229° |
| 2026-05-05 16:22 | 47.91335 | -0.92250 | 32896 ft | 444 kts | 229° |
| 2026-05-05 16:23 | 47.83781 | -1.06703 | 32890 ft | 444 kts | 229° |
| 2026-05-05 16:23 | 47.78083 | -1.17553 | 32905 ft | 444 kts | 229° |
| 2026-05-05 16:24 | 47.74278 | -1.24775 | 32899 ft | 443 kts | 229° |
| 2026-05-05 16:25 | 47.68590 | -1.35529 | 32894 ft | 443 kts | 229° |
| 2026-05-05 16:25 | 47.62870 | -1.46303 | 32894 ft | 443 kts | 229° |
| 2026-05-05 16:26 | 47.54996 | -1.60250 | 32887 ft | 442 kts | 224° |
| 2026-05-05 16:27 | 47.50815 | -1.66911 | 32905 ft | 442 kts | 224° |
| 2026-05-05 16:27 | 47.46649 | -1.73606 | 32896 ft | 442 kts | 225° |
| 2026-05-05 16:28 | 47.42532 | -1.80360 | 32901 ft | 442 kts | 225° |
| 2026-05-05 16:28 | 47.38420 | -1.87113 | 32912 ft | 442 kts | 225° |
| 2026-05-05 16:29 | 47.34099 | -1.93429 | 32913 ft | 438 kts | 214° |
| 2026-05-05 16:29 | 47.28975 | -1.98196 | 32913 ft | 436 kts | 208° |
| 2026-05-05 16:30 | 47.23787 | -2.02820 | 32912 ft | 436 kts | 208° |
| 2026-05-05 16:30 | 47.18599 | -2.07455 | 32916 ft | 436 kts | 208° |
| 2026-05-05 16:31 | 47.13400 | -2.12083 | 32920 ft | 437 kts | 208° |
| 2026-05-05 16:31 | 47.08236 | -2.16667 | 32918 ft | 437 kts | 208° |
| 2026-05-05 16:32 | 47.03041 | -2.21273 | 32914 ft | 436 kts | 208° |
| 2026-05-05 16:32 | 46.97850 | -2.25873 | 32912 ft | 436 kts | 208° |
| 2026-05-05 16:33 | 46.92647 | -2.30461 | 32916 ft | 437 kts | 209° |
| 2026-05-05 16:33 | 46.87611 | -2.35331 | 32911 ft | 440 kts | 219° |
| 2026-05-05 16:34 | 46.83681 | -2.42195 | 32912 ft | 445 kts | 238° |
| 2026-05-05 16:34 | 46.80598 | -2.50042 | 32911 ft | 446 kts | 238° |
| 2026-05-05 16:35 | 46.77493 | -2.57891 | 32915 ft | 447 kts | 238° |
| 2026-05-05 16:35 | 46.74399 | -2.65688 | 32917 ft | 447 kts | 238° |
| 2026-05-05 16:36 | 46.71278 | -2.73532 | 32920 ft | 447 kts | 238° |
| 2026-05-05 16:36 | 46.68154 | -2.81367 | 32921 ft | 448 kts | 238° |
| 2026-05-05 16:37 | 46.65021 | -2.89199 | 32923 ft | 448 kts | 238° |
| 2026-05-05 16:37 | 46.61905 | -2.96971 | 32928 ft | 448 kts | 238° |
| 2026-05-05 16:38 | 46.58758 | -3.04793 | 32930 ft | 448 kts | 238° |
| 2026-05-05 16:38 | 46.55152 | -3.12111 | 32932 ft | 444 kts | 224° |
| 2026-05-05 16:39 | 46.50852 | -3.18568 | 32933 ft | 445 kts | 224° |
| 2026-05-05 16:39 | 46.46552 | -3.25023 | 32934 ft | 445 kts | 224° |
| 2026-05-05 16:40 | 46.42286 | -3.31435 | 32939 ft | 445 kts | 224° |
| 2026-05-05 16:40 | 46.37984 | -3.37883 | 32947 ft | 445 kts | 224° |
| 2026-05-05 16:41 | 46.33680 | -3.44309 | 32951 ft | 444 kts | 224° |
| 2026-05-05 16:41 | 46.29372 | -3.50724 | 32959 ft | 444 kts | 224° |
| 2026-05-05 16:42 | 46.25096 | -3.57075 | 32959 ft | 444 kts | 224° |
| 2026-05-05 16:42 | 46.20795 | -3.63454 | 32961 ft | 443 kts | 224° |
| 2026-05-05 16:43 | 46.16498 | -3.69810 | 32962 ft | 442 kts | 224° |
| 2026-05-05 16:43 | 46.12205 | -3.76163 | 32968 ft | 442 kts | 224° |
| 2026-05-05 16:44 | 46.07946 | -3.82445 | 32969 ft | 441 kts | 224° |
| 2026-05-05 16:44 | 46.03651 | -3.88750 | 32974 ft | 441 kts | 224° |
| 2026-05-05 16:45 | 45.99357 | -3.95035 | 32972 ft | 440 kts | 224° |
| 2026-05-05 16:45 | 45.95060 | -4.01316 | 32976 ft | 440 kts | 224° |
| 2026-05-05 16:46 | 45.90794 | -4.07538 | 32977 ft | 440 kts | 224° |
| 2026-05-05 16:46 | 45.86500 | -4.13789 | 32982 ft | 440 kts | 224° |
| 2026-05-05 16:47 | 45.82204 | -4.20031 | 32989 ft | 439 kts | 224° |
| 2026-05-05 16:47 | 45.77917 | -4.26255 | 32988 ft | 439 kts | 224° |
| 2026-05-05 16:48 | 45.73623 | -4.32455 | 32992 ft | 438 kts | 224° |
| 2026-05-05 16:48 | 45.69354 | -4.38597 | 32993 ft | 438 kts | 224° |
| 2026-05-05 16:49 | 45.65067 | -4.44767 | 32992 ft | 437 kts | 224° |
| 2026-05-05 16:49 | 45.60785 | -4.50930 | 32992 ft | 437 kts | 224° |
| 2026-05-05 16:50 | 45.56531 | -4.57025 | 33001 ft | 436 kts | 224° |
| 2026-05-05 16:50 | 45.52250 | -4.63134 | 33000 ft | 435 kts | 224° |
| 2026-05-05 16:51 | 45.47971 | -4.69231 | 33002 ft | 435 kts | 224° |
| 2026-05-05 16:51 | 45.43692 | -4.75319 | 33004 ft | 435 kts | 224° |
| 2026-05-05 16:52 | 45.39413 | -4.81392 | 33003 ft | 434 kts | 224° |
| 2026-05-05 16:52 | 45.35165 | -4.87412 | 33004 ft | 434 kts | 224° |
| 2026-05-05 16:53 | 45.30888 | -4.93464 | 33011 ft | 434 kts | 224° |
| 2026-05-05 16:53 | 45.26607 | -4.99489 | 33007 ft | 433 kts | 223° |
| 2026-05-05 16:54 | 45.22327 | -5.05491 | 33005 ft | 432 kts | 224° |
| 2026-05-05 16:54 | 45.18083 | -5.11456 | 33003 ft | 432 kts | 223° |
| 2026-05-05 16:55 | 45.13811 | -5.17450 | 32999 ft | 432 kts | 224° |
| 2026-05-05 16:55 | 45.09534 | -5.23432 | 33002 ft | 432 kts | 224° |
| 2026-05-05 16:56 | 45.05274 | -5.29363 | 33003 ft | 432 kts | 224° |
| 2026-05-05 16:56 | 45.00990 | -5.35323 | 33009 ft | 432 kts | 224° |
| 2026-05-05 16:57 | 44.96702 | -5.41276 | 33010 ft | 432 kts | 224° |
| 2026-05-05 16:57 | 44.92416 | -5.47227 | 33010 ft | 432 kts | 224° |
| 2026-05-05 16:58 | 44.88124 | -5.53155 | 33012 ft | 432 kts | 224° |
| 2026-05-05 16:58 | 44.83857 | -5.59026 | 33012 ft | 432 kts | 224° |
| 2026-05-05 16:59 | 44.79561 | -5.64935 | 33014 ft | 431 kts | 224° |
| 2026-05-05 16:59 | 44.75269 | -5.70830 | 33018 ft | 431 kts | 224° |
| 2026-05-05 17:00 | 44.70978 | -5.76714 | 33016 ft | 431 kts | 224° |
| 2026-05-05 17:00 | 44.66714 | -5.82547 | 33013 ft | 430 kts | 224° |
| 2026-05-05 17:01 | 44.62280 | -5.88187 | 33017 ft | 430 kts | 220° |
| 2026-05-05 17:01 | 44.57652 | -5.93514 | 33016 ft | 430 kts | 219° |
| 2026-05-05 17:02 | 44.53007 | -5.98803 | 33028 ft | 430 kts | 219° |
| 2026-05-05 17:02 | 44.49177 | -6.03255 | 33029 ft | 431 kts | 220° |
| 2026-05-05 17:03 | 44.43837 | -6.09524 | 33028 ft | 431 kts | 220° |
| 2026-05-05 17:03 | 44.39234 | -6.14908 | 33028 ft | 431 kts | 220° |
| 2026-05-05 17:04 | 44.34626 | -6.20277 | 33033 ft | 432 kts | 220° |
| 2026-05-05 17:04 | 44.30787 | -6.24741 | 33034 ft | 432 kts | 220° |
| 2026-05-05 17:05 | 44.26162 | -6.30099 | 33033 ft | 432 kts | 220° |
| 2026-05-05 17:05 | 44.20777 | -6.36316 | 33036 ft | 432 kts | 220° |
| 2026-05-05 17:06 | 44.16146 | -6.41657 | 33035 ft | 432 kts | 220° |
| 2026-05-05 17:06 | 44.12298 | -6.46090 | 33038 ft | 432 kts | 220° |
| 2026-05-05 17:07 | 44.07664 | -6.51423 | 33035 ft | 432 kts | 220° |
| 2026-05-05 17:07 | 44.02283 | -6.57601 | 33035 ft | 432 kts | 220° |
| 2026-05-05 17:08 | 43.98428 | -6.62008 | 33034 ft | 432 kts | 220° |
| 2026-05-05 17:08 | 43.93789 | -6.67299 | 33035 ft | 431 kts | 221° |
| 2026-05-05 17:09 | 43.89155 | -6.72591 | 33038 ft | 431 kts | 221° |
| 2026-05-05 17:09 | 43.84516 | -6.77869 | 33037 ft | 432 kts | 221° |
| 2026-05-05 17:10 | 43.79878 | -6.83139 | 33040 ft | 432 kts | 221° |
| 2026-05-05 17:10 | 43.75261 | -6.88366 | 33043 ft | 432 kts | 221° |
| 2026-05-05 17:11 | 43.70609 | -6.93621 | 33043 ft | 432 kts | 221° |
| 2026-05-05 17:11 | 43.65954 | -6.98874 | 33051 ft | 432 kts | 221° |
| 2026-05-05 17:12 | 43.61298 | -7.04118 | 33048 ft | 432 kts | 221° |
| 2026-05-05 17:12 | 43.56636 | -7.09358 | 33052 ft | 432 kts | 221° |
| 2026-05-05 17:13 | 43.52002 | -7.14555 | 33053 ft | 432 kts | 221° |
| 2026-05-05 17:13 | 43.47336 | -7.19774 | 33056 ft | 432 kts | 221° |
| 2026-05-05 17:14 | 43.42667 | -7.24982 | 33053 ft | 432 kts | 221° |
| 2026-05-05 17:14 | 43.38030 | -7.30151 | 33051 ft | 432 kts | 222° |
| 2026-05-05 17:15 | 43.33359 | -7.35353 | 33048 ft | 432 kts | 221° |
| 2026-05-05 17:15 | 43.28680 | -7.40539 | 33047 ft | 433 kts | 222° |
| 2026-05-05 17:16 | 43.23992 | -7.45726 | 33048 ft | 433 kts | 222° |
| 2026-05-05 17:16 | 43.19305 | -7.50904 | 33048 ft | 433 kts | 222° |
| 2026-05-05 17:17 | 43.14647 | -7.56048 | 33050 ft | 433 kts | 222° |
| 2026-05-05 17:17 | 43.09946 | -7.61224 | 33054 ft | 433 kts | 222° |
| 2026-05-05 17:18 | 43.05249 | -7.66385 | 33050 ft | 433 kts | 222° |
| 2026-05-05 17:18 | 43.00552 | -7.71536 | 33055 ft | 433 kts | 222° |
| 2026-05-05 17:19 | 42.95880 | -7.76643 | 33061 ft | 433 kts | 222° |
| 2026-05-05 17:19 | 42.91186 | -7.81776 | 33053 ft | 432 kts | 222° |
| 2026-05-05 17:20 | 42.86478 | -7.86900 | 33062 ft | 433 kts | 222° |
| 2026-05-05 17:20 | 42.81780 | -7.92009 | 33058 ft | 432 kts | 222° |
| 2026-05-05 17:21 | 42.77081 | -7.97122 | 33062 ft | 432 kts | 222° |
| 2026-05-05 17:22 | 42.70054 | -8.04729 | 33047 ft | 432 kts | 222° |
| 2026-05-05 17:22 | 42.65346 | -8.09806 | 33043 ft | 432 kts | 222° |
| 2026-05-05 17:23 | 42.60641 | -8.14885 | 33043 ft | 432 kts | 222° |
| 2026-05-05 17:23 | 42.55969 | -8.19918 | 33044 ft | 432 kts | 222° |
| 2026-05-05 17:24 | 42.51254 | -8.24972 | 33054 ft | 432 kts | 222° |
| 2026-05-05 17:24 | 42.46538 | -8.30016 | 33056 ft | 432 kts | 222° |
| 2026-05-05 17:25 | 42.41823 | -8.35054 | 33072 ft | 432 kts | 222° |
| 2026-05-05 17:25 | 42.37138 | -8.40054 | 33077 ft | 432 kts | 223° |
| 2026-05-05 17:26 | 42.32421 | -8.45084 | 33083 ft | 432 kts | 223° |
| 2026-05-05 17:26 | 42.27706 | -8.50099 | 33089 ft | 431 kts | 222° |
| 2026-05-05 17:27 | 42.22988 | -8.55097 | 33095 ft | 431 kts | 222° |
| 2026-05-05 17:27 | 42.18276 | -8.60084 | 33086 ft | 431 kts | 223° |
| 2026-05-05 17:28 | 42.13593 | -8.65032 | 33086 ft | 430 kts | 223° |
| 2026-05-05 17:28 | 42.08891 | -8.69997 | 33081 ft | 429 kts | 223° |
| 2026-05-05 17:29 | 42.04193 | -8.74954 | 33078 ft | 429 kts | 223° |
| 2026-05-05 17:29 | 41.99485 | -8.79899 | 33076 ft | 429 kts | 223° |
| 2026-05-05 17:30 | 41.94788 | -8.84836 | 33073 ft | 428 kts | 223° |
| 2026-05-05 17:30 | 41.90123 | -8.89725 | 33072 ft | 428 kts | 223° |
| 2026-05-05 17:31 | 41.85407 | -8.94590 | 33074 ft | 428 kts | 221° |
| 2026-05-05 17:31 | 41.80609 | -8.99323 | 33080 ft | 428 kts | 221° |
| 2026-05-05 17:32 | 41.75791 | -9.03994 | 33079 ft | 427 kts | 221° |
| 2026-05-05 17:32 | 41.71022 | -9.08641 | 33078 ft | 426 kts | 221° |
| 2026-05-05 17:33 | 41.66247 | -9.13327 | 33080 ft | 426 kts | 221° |
| 2026-05-05 17:33 | 41.61470 | -9.18000 | 33076 ft | 425 kts | 221° |
| 2026-05-05 17:34 | 41.56697 | -9.22657 | 33076 ft | 425 kts | 221° |
| 2026-05-05 17:34 | 41.51923 | -9.27304 | 33074 ft | 424 kts | 221° |
| 2026-05-05 17:35 | 41.47182 | -9.31909 | 33075 ft | 424 kts | 221° |
| 2026-05-05 17:35 | 41.42410 | -9.36545 | 33078 ft | 424 kts | 221° |
| 2026-05-05 17:36 | 41.37638 | -9.41161 | 33082 ft | 424 kts | 221° |
| 2026-05-05 17:36 | 41.32868 | -9.45770 | 33078 ft | 423 kts | 221° |
| 2026-05-05 17:37 | 41.28134 | -9.50334 | 33086 ft | 423 kts | 221° |
| 2026-05-05 17:37 | 41.23371 | -9.54922 | 33095 ft | 423 kts | 221° |
| 2026-05-05 17:38 | 41.18610 | -9.59494 | 33093 ft | 422 kts | 221° |
| 2026-05-05 17:38 | 41.13848 | -9.64054 | 33098 ft | 422 kts | 221° |
| 2026-05-05 17:39 | 41.09096 | -9.68605 | 33096 ft | 421 kts | 221° |
| 2026-05-05 17:39 | 41.04376 | -9.73122 | 33090 ft | 421 kts | 221° |
| 2026-05-05 17:40 | 40.99623 | -9.77658 | 33095 ft | 421 kts | 221° |
| 2026-05-05 17:40 | 40.94865 | -9.82186 | 33098 ft | 421 kts | 221° |
| 2026-05-05 17:41 | 40.90118 | -9.86707 | 33099 ft | 421 kts | 221° |
| 2026-05-05 17:41 | 40.85363 | -9.91218 | 33095 ft | 420 kts | 221° |
| 2026-05-05 17:42 | 40.80651 | -9.95679 | 33099 ft | 420 kts | 221° |
| 2026-05-05 17:42 | 40.75894 | -10.00172 | 33100 ft | 420 kts | 221° |
| 2026-05-05 17:43 | 40.71146 | -10.04647 | 33101 ft | 419 kts | 221° |
| 2026-05-05 17:43 | 40.66402 | -10.09123 | 33103 ft | 419 kts | 221° |
| 2026-05-05 17:44 | 40.61659 | -10.13585 | 33099 ft | 419 kts | 221° |
| 2026-05-05 17:44 | 40.56947 | -10.18004 | 33099 ft | 419 kts | 221° |
| 2026-05-05 17:45 | 40.52213 | -10.22445 | 33103 ft | 418 kts | 221° |
| 2026-05-05 17:45 | 40.47472 | -10.26880 | 33111 ft | 418 kts | 221° |
| 2026-05-05 17:46 | 40.42729 | -10.31311 | 33090 ft | 420 kts | 220° |
| 2026-05-05 17:46 | 40.37966 | -10.35753 | 33101 ft | 420 kts | 219° |
| 2026-05-05 17:47 | 40.33232 | -10.40159 | 33102 ft | 420 kts | 219° |
| 2026-05-05 17:47 | 40.28471 | -10.44587 | 33107 ft | 420 kts | 219° |
| 2026-05-05 17:48 | 40.23706 | -10.48999 | 33107 ft | 420 kts | 219° |
| 2026-05-05 17:48 | 40.18940 | -10.53406 | 33107 ft | 419 kts | 219° |
| 2026-05-05 17:49 | 40.14174 | -10.57804 | 33105 ft | 419 kts | 219° |
| 2026-05-05 17:49 | 40.09434 | -10.62168 | 33103 ft | 419 kts | 219° |
| 2026-05-05 17:50 | 40.04668 | -10.66560 | 33105 ft | 420 kts | 219° |
| 2026-05-05 17:50 | 39.99896 | -10.70947 | 33100 ft | 420 kts | 219° |
| 2026-05-05 17:51 | 39.95123 | -10.75335 | 33102 ft | 420 kts | 219° |
| 2026-05-05 17:51 | 39.90347 | -10.79719 | 33106 ft | 420 kts | 219° |
| 2026-05-05 17:52 | 39.85565 | -10.84094 | 33103 ft | 420 kts | 219° |
| 2026-05-05 17:52 | 39.80808 | -10.88431 | 33112 ft | 420 kts | 219° |
| 2026-05-05 17:53 | 39.76019 | -10.92790 | 33110 ft | 420 kts | 218° |
| 2026-05-05 17:53 | 39.71227 | -10.97147 | 33112 ft | 420 kts | 218° |
| 2026-05-05 17:54 | 39.66438 | -11.01498 | 33117 ft | 420 kts | 218° |
| 2026-05-05 17:54 | 39.61682 | -11.05811 | 33117 ft | 420 kts | 218° |
| 2026-05-05 17:55 | 39.56882 | -11.10151 | 33114 ft | 420 kts | 218° |
| 2026-05-05 17:55 | 39.52087 | -11.14480 | 33118 ft | 420 kts | 218° |
| 2026-05-05 17:56 | 39.47297 | -11.18803 | 33124 ft | 420 kts | 218° |
| 2026-05-05 17:56 | 39.42539 | -11.23085 | 33124 ft | 419 kts | 218° |
| 2026-05-05 17:57 | 39.37751 | -11.27385 | 33126 ft | 419 kts | 218° |
| 2026-05-05 17:57 | 39.32966 | -11.31679 | 33124 ft | 419 kts | 218° |
| 2026-05-05 17:58 | 39.28181 | -11.35959 | 33126 ft | 418 kts | 218° |
| 2026-05-05 17:58 | 39.23437 | -11.40207 | 33129 ft | 417 kts | 219° |
| 2026-05-05 17:59 | 39.18671 | -11.44475 | 33146 ft | 417 kts | 219° |
| 2026-05-05 17:59 | 39.13904 | -11.48715 | 33149 ft | 416 kts | 218° |
| 2026-05-05 18:00 | 39.09135 | -11.52941 | 33148 ft | 415 kts | 219° |
| 2026-05-05 18:00 | 39.04385 | -11.57166 | 33147 ft | 415 kts | 219° |
| 2026-05-05 18:01 | 38.99676 | -11.61353 | 33149 ft | 414 kts | 219° |
| 2026-05-05 18:01 | 38.94940 | -11.65552 | 33152 ft | 413 kts | 218° |
| 2026-05-05 18:02 | 38.90202 | -11.69725 | 33148 ft | 413 kts | 219° |
| 2026-05-05 18:02 | 38.85478 | -11.73894 | 33152 ft | 412 kts | 219° |
| 2026-05-05 18:03 | 38.80764 | -11.78056 | 33161 ft | 411 kts | 219° |
| 2026-05-05 18:03 | 38.76078 | -11.82170 | 33158 ft | 411 kts | 218° |
| 2026-05-05 18:04 | 38.71370 | -11.86299 | 33158 ft | 410 kts | 219° |
| 2026-05-05 18:04 | 38.66673 | -11.90420 | 33156 ft | 409 kts | 219° |
| 2026-05-05 18:05 | 38.61974 | -11.94531 | 33158 ft | 409 kts | 219° |
| 2026-05-05 18:05 | 38.57311 | -11.98599 | 33158 ft | 408 kts | 219° |
| 2026-05-05 18:06 | 38.52628 | -12.02680 | 33163 ft | 407 kts | 218° |
| 2026-05-05 18:06 | 38.47945 | -12.06762 | 33160 ft | 407 kts | 219° |
| 2026-05-05 18:07 | 38.43277 | -12.10839 | 33155 ft | 407 kts | 219° |
| 2026-05-05 18:07 | 38.38605 | -12.14895 | 33157 ft | 406 kts | 218° |
| 2026-05-05 18:08 | 38.33928 | -12.18944 | 33152 ft | 406 kts | 218° |
| 2026-05-05 18:08 | 38.29291 | -12.22963 | 33163 ft | 406 kts | 218° |
| 2026-05-05 18:09 | 38.24629 | -12.26995 | 33157 ft | 405 kts | 218° |
| 2026-05-05 18:09 | 38.19968 | -12.31014 | 33158 ft | 405 kts | 218° |
| 2026-05-05 18:10 | 38.15309 | -12.35020 | 33150 ft | 404 kts | 218° |
| 2026-05-05 18:10 | 38.10648 | -12.39029 | 33157 ft | 404 kts | 218° |
| 2026-05-05 18:11 | 38.06022 | -12.42999 | 33161 ft | 404 kts | 218° |
| 2026-05-05 18:11 | 38.01362 | -12.46996 | 33154 ft | 404 kts | 218° |
| 2026-05-05 18:12 | 37.96707 | -12.50991 | 33162 ft | 404 kts | 218° |
| 2026-05-05 18:12 | 37.92049 | -12.54968 | 33158 ft | 404 kts | 218° |
| 2026-05-05 18:13 | 37.87419 | -12.58912 | 33159 ft | 404 kts | 218° |
| 2026-05-05 18:13 | 37.82763 | -12.62886 | 33159 ft | 404 kts | 218° |
| 2026-05-05 18:14 | 37.78101 | -12.66857 | 33148 ft | 404 kts | 218° |
| 2026-05-05 18:14 | 37.73432 | -12.70815 | 33163 ft | 404 kts | 218° |
| 2026-05-05 18:15 | 37.68762 | -12.74771 | 33168 ft | 404 kts | 218° |
| 2026-05-05 18:15 | 37.64119 | -12.78699 | 33167 ft | 404 kts | 218° |
| 2026-05-05 18:16 | 37.59451 | -12.82655 | 33149 ft | 404 kts | 218° |
| 2026-05-05 18:16 | 37.54778 | -12.86612 | 33157 ft | 405 kts | 218° |
| 2026-05-05 18:17 | 37.50097 | -12.90559 | 33159 ft | 405 kts | 218° |
| 2026-05-05 18:17 | 37.45404 | -12.94509 | 33162 ft | 406 kts | 218° |
| 2026-05-05 18:18 | 37.40733 | -12.98431 | 33164 ft | 406 kts | 217° |
| 2026-05-05 18:18 | 37.36029 | -13.02371 | 33165 ft | 407 kts | 217° |
| 2026-05-05 18:19 | 37.31322 | -13.06317 | 33165 ft | 407 kts | 217° |
| 2026-05-05 18:19 | 37.26608 | -13.10259 | 33166 ft | 407 kts | 217° |
| 2026-05-05 18:20 | 37.21895 | -13.14200 | 33163 ft | 407 kts | 217° |
| 2026-05-05 18:20 | 37.17180 | -13.18138 | 33162 ft | 407 kts | 217° |
| 2026-05-05 18:21 | 37.12486 | -13.22038 | 33162 ft | 407 kts | 217° |
| 2026-05-05 18:21 | 37.07760 | -13.25958 | 33160 ft | 408 kts | 217° |
| 2026-05-05 18:22 | 37.03030 | -13.29884 | 33158 ft | 408 kts | 217° |
| 2026-05-05 18:22 | 36.98301 | -13.33806 | 33158 ft | 408 kts | 217° |
| 2026-05-05 18:23 | 36.93598 | -13.37693 | 33157 ft | 408 kts | 217° |
| 2026-05-05 18:23 | 36.88869 | -13.41613 | 33155 ft | 408 kts | 217° |
| 2026-05-05 18:24 | 36.84130 | -13.45532 | 33150 ft | 409 kts | 217° |
| 2026-05-05 18:24 | 36.79387 | -13.49436 | 33153 ft | 409 kts | 217° |
| 2026-05-05 18:25 | 36.74631 | -13.53335 | 33153 ft | 409 kts | 217° |
| 2026-05-05 18:25 | 36.69871 | -13.57238 | 33153 ft | 410 kts | 217° |
| 2026-05-05 18:26 | 36.65141 | -13.61122 | 33155 ft | 410 kts | 217° |
| 2026-05-05 18:26 | 36.60375 | -13.65028 | 33154 ft | 410 kts | 217° |
| 2026-05-05 18:27 | 36.55604 | -13.68938 | 33157 ft | 411 kts | 217° |
| 2026-05-05 18:27 | 36.50831 | -13.72839 | 33154 ft | 411 kts | 217° |
| 2026-05-05 18:28 | 36.43686 | -13.78658 | 33156 ft | 411 kts | 217° |
| 2026-05-05 18:28 | 36.38894 | -13.82552 | 33156 ft | 412 kts | 216° |
| 2026-05-05 18:29 | 36.34101 | -13.86438 | 33162 ft | 412 kts | 216° |
| 2026-05-05 18:29 | 36.29339 | -13.90308 | 33159 ft | 412 kts | 216° |
| 2026-05-05 18:30 | 36.24546 | -13.94198 | 33160 ft | 412 kts | 216° |
| 2026-05-05 18:30 | 36.19749 | -13.98079 | 33160 ft | 412 kts | 216° |
| 2026-05-05 18:31 | 36.14942 | -14.01947 | 33163 ft | 412 kts | 216° |
| 2026-05-05 18:31 | 36.10161 | -14.05794 | 33164 ft | 413 kts | 216° |
| 2026-05-05 18:32 | 36.05353 | -14.09672 | 33165 ft | 413 kts | 216° |
| 2026-05-05 18:32 | 36.00539 | -14.13541 | 33164 ft | 413 kts | 216° |
| 2026-05-05 18:33 | 35.95724 | -14.17409 | 33165 ft | 413 kts | 216° |
| 2026-05-05 18:33 | 35.90908 | -14.21273 | 33161 ft | 413 kts | 216° |
| 2026-05-05 18:34 | 35.86122 | -14.25104 | 33158 ft | 413 kts | 216° |
| 2026-05-05 18:34 | 35.81300 | -14.28960 | 33160 ft | 413 kts | 216° |
| 2026-05-05 18:35 | 35.76472 | -14.32802 | 33165 ft | 414 kts | 216° |
| 2026-05-05 18:35 | 35.71643 | -14.36655 | 33162 ft | 414 kts | 216° |
| 2026-05-05 18:36 | 35.66842 | -14.40479 | 33163 ft | 414 kts | 216° |
| 2026-05-05 18:36 | 35.62005 | -14.44312 | 33158 ft | 414 kts | 216° |
| 2026-05-05 18:37 | 35.57168 | -14.48150 | 33162 ft | 414 kts | 216° |
| 2026-05-05 18:37 | 35.52330 | -14.51986 | 33159 ft | 414 kts | 216° |
| 2026-05-05 18:38 | 35.47478 | -14.55820 | 33160 ft | 414 kts | 216° |
| 2026-05-05 18:38 | 35.42664 | -14.59621 | 33162 ft | 415 kts | 216° |
| 2026-05-05 18:39 | 35.37814 | -14.63454 | 33159 ft | 415 kts | 216° |
| 2026-05-05 18:39 | 35.32961 | -14.67268 | 33155 ft | 415 kts | 216° |
| 2026-05-05 18:40 | 35.28104 | -14.71084 | 33155 ft | 414 kts | 216° |
| 2026-05-05 18:40 | 35.23286 | -14.74870 | 33151 ft | 414 kts | 216° |
| 2026-05-05 18:41 | 35.18437 | -14.78686 | 33155 ft | 415 kts | 216° |
| 2026-05-05 18:41 | 35.13575 | -14.82489 | 33149 ft | 415 kts | 216° |
| 2026-05-05 18:42 | 35.08708 | -14.86283 | 33150 ft | 415 kts | 216° |
| 2026-05-05 18:42 | 35.03873 | -14.90060 | 33152 ft | 415 kts | 216° |
| 2026-05-05 18:43 | 34.99009 | -14.93856 | 33151 ft | 415 kts | 216° |
| 2026-05-05 18:43 | 34.94145 | -14.97652 | 33151 ft | 415 kts | 216° |
| 2026-05-05 18:44 | 34.89276 | -15.01442 | 33150 ft | 415 kts | 216° |
| 2026-05-05 18:44 | 34.84433 | -15.05200 | 33149 ft | 415 kts | 216° |
| 2026-05-05 18:45 | 34.79559 | -15.08973 | 33152 ft | 415 kts | 216° |
| 2026-05-05 18:45 | 34.74688 | -15.12744 | 33150 ft | 415 kts | 216° |
| 2026-05-05 18:46 | 34.69808 | -15.16514 | 33151 ft | 415 kts | 216° |
| 2026-05-05 18:46 | 34.64929 | -15.20271 | 33152 ft | 415 kts | 215° |
| 2026-05-05 18:47 | 34.60090 | -15.24001 | 33149 ft | 415 kts | 216° |
| 2026-05-05 18:47 | 34.55216 | -15.27767 | 33136 ft | 415 kts | 216° |
| 2026-05-05 18:48 | 34.50339 | -15.31514 | 33138 ft | 415 kts | 215° |
| 2026-05-05 18:48 | 34.45457 | -15.35255 | 33129 ft | 415 kts | 215° |
| 2026-05-05 18:49 | 34.40610 | -15.38973 | 33140 ft | 415 kts | 216° |
| 2026-05-05 18:49 | 34.35725 | -15.42707 | 33137 ft | 415 kts | 215° |
| 2026-05-05 18:50 | 34.30836 | -15.46440 | 33134 ft | 415 kts | 216° |
| 2026-05-05 18:50 | 34.25953 | -15.50174 | 33135 ft | 415 kts | 216° |
| 2026-05-05 18:51 | 34.21093 | -15.53882 | 33124 ft | 417 kts | 216° |
| 2026-05-05 18:51 | 34.16175 | -15.57630 | 33120 ft | 419 kts | 216° |
| 2026-05-05 18:52 | 34.11225 | -15.61398 | 33115 ft | 421 kts | 216° |
| 2026-05-05 18:52 | 34.08747 | -15.63286 | 32590 ft | 424 kts | 216° |
| 2026-05-05 18:52 | 34.06252 | -15.65182 | 32083 ft | 420 kts | 215° |
| 2026-05-05 18:53 | 34.03809 | -15.67028 | 31816 ft | 410 kts | 215° |
| 2026-05-05 18:53 | 34.01442 | -15.68819 | 31575 ft | 405 kts | 216° |
| 2026-05-05 18:53 | 33.99065 | -15.70617 | 31324 ft | 402 kts | 215° |
| 2026-05-05 18:53 | 33.96700 | -15.72403 | 31070 ft | 400 kts | 216° |
| 2026-05-05 18:54 | 33.94348 | -15.74181 | 30829 ft | 398 kts | 216° |
| 2026-05-05 18:54 | 33.92010 | -15.75948 | 30582 ft | 396 kts | 216° |
| 2026-05-05 18:54 | 33.89680 | -15.77709 | 30341 ft | 394 kts | 216° |
| 2026-05-05 18:54 | 33.87361 | -15.79462 | 30078 ft | 393 kts | 216° |
| 2026-05-05 18:55 | 33.85053 | -15.81202 | 29799 ft | 391 kts | 216° |
| 2026-05-05 18:55 | 33.82786 | -15.82914 | 29523 ft | 389 kts | 216° |
| 2026-05-05 18:55 | 33.80496 | -15.84642 | 29237 ft | 388 kts | 216° |
| 2026-05-05 18:55 | 33.78214 | -15.86362 | 28966 ft | 387 kts | 216° |
| 2026-05-05 18:56 | 33.75936 | -15.88076 | 28692 ft | 386 kts | 216° |
| 2026-05-05 18:56 | 33.73664 | -15.89782 | 28424 ft | 385 kts | 216° |
| 2026-05-05 18:56 | 33.71400 | -15.91480 | 28154 ft | 384 kts | 215° |
| 2026-05-05 18:56 | 33.69137 | -15.93178 | 27890 ft | 383 kts | 216° |
| 2026-05-05 18:57 | 33.66912 | -15.94847 | 27633 ft | 382 kts | 215° |
| 2026-05-05 18:57 | 33.64666 | -15.96541 | 27368 ft | 381 kts | 216° |
| 2026-05-05 18:57 | 33.62434 | -15.98247 | 27112 ft | 380 kts | 216° |
| 2026-05-05 18:57 | 33.60217 | -15.99955 | 26852 ft | 379 kts | 216° |
| 2026-05-05 18:58 | 33.58004 | -16.01663 | 26601 ft | 378 kts | 216° |
| 2026-05-05 18:58 | 33.55796 | -16.03365 | 26352 ft | 377 kts | 216° |
| 2026-05-05 18:58 | 33.53589 | -16.05061 | 26112 ft | 376 kts | 216° |
| 2026-05-05 18:58 | 33.51388 | -16.06749 | 25856 ft | 375 kts | 216° |
| 2026-05-05 18:59 | 33.49193 | -16.08429 | 25611 ft | 374 kts | 216° |
| 2026-05-05 18:59 | 33.47034 | -16.10083 | 25376 ft | 373 kts | 216° |
| 2026-05-05 18:59 | 33.44844 | -16.11759 | 25132 ft | 372 kts | 216° |
| 2026-05-05 18:59 | 33.42666 | -16.13424 | 24894 ft | 372 kts | 216° |
| 2026-05-05 19:00 | 33.40489 | -16.15084 | 24660 ft | 371 kts | 216° |
| 2026-05-05 19:00 | 33.38311 | -16.16743 | 24425 ft | 370 kts | 216° |
| 2026-05-05 19:00 | 33.36147 | -16.18392 | 24192 ft | 369 kts | 216° |
| 2026-05-05 19:00 | 33.33980 | -16.20040 | 23959 ft | 368 kts | 216° |
| 2026-05-05 19:01 | 33.31819 | -16.21680 | 23731 ft | 367 kts | 216° |
| 2026-05-05 19:01 | 33.29695 | -16.23294 | 23466 ft | 366 kts | 216° |
| 2026-05-05 19:01 | 33.27548 | -16.24927 | 23200 ft | 365 kts | 216° |
| 2026-05-05 19:01 | 33.25411 | -16.26549 | 22926 ft | 363 kts | 216° |
| 2026-05-05 19:02 | 33.23282 | -16.28168 | 22657 ft | 362 kts | 216° |
| 2026-05-05 19:02 | 33.21162 | -16.29780 | 22386 ft | 360 kts | 216° |
| 2026-05-05 19:02 | 33.19054 | -16.31384 | 22122 ft | 359 kts | 216° |
| 2026-05-05 19:02 | 33.16950 | -16.32983 | 21863 ft | 358 kts | 216° |
| 2026-05-05 19:03 | 33.14857 | -16.34571 | 21609 ft | 357 kts | 216° |
| 2026-05-05 19:03 | 33.12786 | -16.36135 | 21357 ft | 356 kts | 216° |
| 2026-05-05 19:03 | 33.10696 | -16.37710 | 21107 ft | 355 kts | 216° |
| 2026-05-05 19:03 | 33.08631 | -16.39265 | 20865 ft | 347 kts | 216° |
| 2026-05-05 19:04 | 33.06617 | -16.40782 | 20602 ft | 339 kts | 216° |
| 2026-05-05 19:04 | 33.04643 | -16.42271 | 20348 ft | 332 kts | 216° |
| 2026-05-05 19:04 | 33.02719 | -16.43726 | 20131 ft | 326 kts | 216° |
| 2026-05-05 19:04 | 33.00809 | -16.45171 | 19957 ft | 324 kts | 216° |
| 2026-05-05 19:05 | 32.98905 | -16.46609 | 19791 ft | 323 kts | 216° |
| 2026-05-05 19:05 | 32.97006 | -16.48042 | 19624 ft | 323 kts | 216° |
| 2026-05-05 19:05 | 32.95111 | -16.49469 | 19457 ft | 322 kts | 216° |
| 2026-05-05 19:05 | 32.93246 | -16.50882 | 19285 ft | 321 kts | 218° |
| 2026-05-05 19:06 | 32.91866 | -16.52218 | 19160 ft | 318 kts | 225° |
| 2026-05-05 19:06 | 32.90234 | -16.53967 | 18992 ft | 312 kts | 225° |
| 2026-05-05 19:06 | 32.88646 | -16.55666 | 18833 ft | 302 kts | 225° |
| 2026-05-05 19:06 | 32.87103 | -16.57312 | 18663 ft | 294 kts | 225° |
| 2026-05-05 19:07 | 32.85587 | -16.58928 | 18506 ft | 292 kts | 225° |
| 2026-05-05 19:07 | 32.84678 | -16.60090 | 18365 ft | 288 kts | 239° |
| 2026-05-05 19:07 | 32.83818 | -16.62992 | 17924 ft | 282 kts | 268° |
| 2026-05-05 19:07 | 32.84082 | -16.65281 | 17530 ft | 281 kts | 290° |
| 2026-05-05 19:08 | 32.85066 | -16.67282 | 17067 ft | 283 kts | 311° |
| 2026-05-05 19:08 | 32.86653 | -16.68673 | 16535 ft | 288 kts | 333° |
| 2026-05-05 19:08 | 32.88627 | -16.69218 | 15671 ft | 300 kts | 0° |
| 2026-05-05 19:08 | 32.90657 | -16.68681 | 15253 ft | 306 kts | 21° |
| 2026-05-05 19:09 | 32.92460 | -16.67213 | 14448 ft | 322 kts | 39° |
| 2026-05-05 19:09 | 32.94100 | -16.65434 | 13612 ft | 323 kts | 41° |
| 2026-05-05 19:09 | 32.95749 | -16.63619 | 12729 ft | 323 kts | 41° |
| 2026-05-05 19:09 | 32.97395 | -16.61802 | 11862 ft | 322 kts | 41° |
| 2026-05-05 19:10 | 32.98870 | -16.59824 | 11060 ft | 319 kts | 60° |
| 2026-05-05 19:10 | 32.99421 | -16.58222 | 10610 ft | 315 kts | 77° |
| 2026-05-05 19:10 | 32.99361 | -16.55200 | 9812 ft | 308 kts | 108° |
| 2026-05-05 19:10 | 32.98337 | -16.53008 | 9085 ft | 302 kts | 133° |
| 2026-05-05 19:11 | 32.96670 | -16.51564 | 8413 ft | 295 kts | 158° |
| 2026-05-05 19:11 | 32.94714 | -16.51075 | 7868 ft | 284 kts | 182° |
| 2026-05-05 19:11 | 32.92822 | -16.51515 | 7349 ft | 273 kts | 205° |
| 2026-05-05 19:11 | 32.91258 | -16.52697 | 6873 ft | 262 kts | 220° |
| 2026-05-05 19:12 | 32.89900 | -16.54093 | 6636 ft | 262 kts | 223° |
| 2026-05-05 19:12 | 32.88564 | -16.55564 | 6560 ft | 263 kts | 224° |
| 2026-05-05 19:12 | 32.87232 | -16.57056 | 6429 ft | 263 kts | 224° |
| 2026-05-05 19:12 | 32.85904 | -16.58541 | 6272 ft | 262 kts | 224° |
| 2026-05-05 19:13 | 32.84696 | -16.60145 | 6137 ft | 260 kts | 241° |
| 2026-05-05 19:13 | 32.84153 | -16.62165 | 6106 ft | 258 kts | 268° |
| 2026-05-05 19:13 | 32.84399 | -16.64257 | 6106 ft | 257 kts | 294° |
| 2026-05-05 19:13 | 32.85385 | -16.65993 | 6111 ft | 254 kts | 320° |
| 2026-05-05 19:14 | 32.86876 | -16.67024 | 6113 ft | 253 kts | 345° |
| 2026-05-05 19:14 | 32.88612 | -16.67187 | 6105 ft | 252 kts | 11° |
| 2026-05-05 19:14 | 32.90233 | -16.66440 | 6113 ft | 252 kts | 36° |
| 2026-05-05 19:14 | 32.91587 | -16.65116 | 6114 ft | 253 kts | 42° |
| 2026-05-05 19:15 | 32.92888 | -16.63705 | 6110 ft | 254 kts | 43° |
| 2026-05-05 19:15 | 32.94177 | -16.62270 | 6119 ft | 253 kts | 43° |
| 2026-05-05 19:15 | 32.95464 | -16.60833 | 6124 ft | 254 kts | 43° |
| 2026-05-05 19:15 | 32.96671 | -16.59314 | 6117 ft | 253 kts | 57° |
| 2026-05-05 19:16 | 32.97298 | -16.57367 | 6129 ft | 255 kts | 83° |
| 2026-05-05 19:16 | 32.97157 | -16.55302 | 6130 ft | 256 kts | 109° |
| 2026-05-05 19:16 | 32.96256 | -16.53487 | 6130 ft | 258 kts | 135° |
| 2026-05-05 19:16 | 32.94764 | -16.52319 | 6129 ft | 259 kts | 161° |
| 2026-05-05 19:17 | 32.92986 | -16.52059 | 6125 ft | 260 kts | 188° |
| 2026-05-05 19:17 | 32.91296 | -16.52774 | 6125 ft | 260 kts | 215° |
| 2026-05-05 19:17 | 32.89900 | -16.54143 | 6128 ft | 261 kts | 223° |
| 2026-05-05 19:17 | 32.88559 | -16.55599 | 6127 ft | 262 kts | 223° |
| 2026-05-05 19:18 | 32.87229 | -16.57076 | 6112 ft | 261 kts | 224° |
| 2026-05-05 19:18 | 32.85901 | -16.58553 | 6112 ft | 261 kts | 223° |
| 2026-05-05 19:18 | 32.84704 | -16.60122 | 6112 ft | 260 kts | 240° |
| 2026-05-05 19:18 | 32.84144 | -16.62139 | 6110 ft | 259 kts | 268° |
| 2026-05-05 19:19 | 32.84402 | -16.64232 | 6110 ft | 257 kts | 294° |
| 2026-05-05 19:19 | 32.85400 | -16.65962 | 6111 ft | 254 kts | 320° |
| 2026-05-05 19:19 | 32.86919 | -16.66993 | 6111 ft | 253 kts | 346° |
| 2026-05-05 19:19 | 32.88655 | -16.67131 | 6113 ft | 252 kts | 11° |
| 2026-05-05 19:20 | 32.90268 | -16.66366 | 6112 ft | 252 kts | 36° |
| 2026-05-05 19:20 | 32.91584 | -16.64988 | 6113 ft | 253 kts | 43° |
| 2026-05-05 19:20 | 32.92876 | -16.63563 | 6114 ft | 253 kts | 43° |
| 2026-05-05 19:20 | 32.94153 | -16.62160 | 6121 ft | 253 kts | 43° |
| 2026-05-05 19:21 | 32.95452 | -16.60738 | 6126 ft | 254 kts | 42° |
| 2026-05-05 19:21 | 32.96664 | -16.59217 | 6123 ft | 254 kts | 58° |
| 2026-05-05 19:21 | 32.97269 | -16.57260 | 6131 ft | 255 kts | 84° |
| 2026-05-05 19:21 | 32.97086 | -16.55173 | 6130 ft | 256 kts | 110° |
| 2026-05-05 19:22 | 32.96138 | -16.53389 | 6131 ft | 258 kts | 136° |
| 2026-05-05 19:22 | 32.94616 | -16.52286 | 6132 ft | 259 kts | 163° |
| 2026-05-05 19:22 | 32.92829 | -16.52107 | 6128 ft | 260 kts | 190° |
| 2026-05-05 19:22 | 32.91171 | -16.52884 | 6122 ft | 258 kts | 217° |
| 2026-05-05 19:23 | 32.89788 | -16.54264 | 6128 ft | 260 kts | 223° |
| 2026-05-05 19:23 | 32.88452 | -16.55714 | 6120 ft | 260 kts | 223° |
| 2026-05-05 19:23 | 32.87126 | -16.57182 | 6113 ft | 261 kts | 223° |
| 2026-05-05 19:23 | 32.85820 | -16.58633 | 6108 ft | 261 kts | 223° |
| 2026-05-05 19:24 | 32.84637 | -16.60253 | 6109 ft | 260 kts | 243° |
| 2026-05-05 19:24 | 32.84140 | -16.62289 | 6108 ft | 258 kts | 270° |
| 2026-05-05 19:24 | 32.84447 | -16.64361 | 6110 ft | 256 kts | 296° |
| 2026-05-05 19:24 | 32.85481 | -16.66052 | 6112 ft | 254 kts | 322° |
| 2026-05-05 19:25 | 32.87027 | -16.67021 | 6123 ft | 254 kts | 348° |
| 2026-05-05 19:25 | 32.88776 | -16.67076 | 6506 ft | 254 kts | 13° |
| 2026-05-05 19:25 | 32.90382 | -16.66226 | 7097 ft | 256 kts | 37° |
| 2026-05-05 19:25 | 32.91749 | -16.64852 | 7774 ft | 260 kts | 41° |
| 2026-05-05 19:26 | 32.93077 | -16.63415 | 8045 ft | 261 kts | 42° |
| 2026-05-05 19:26 | 32.94406 | -16.61937 | 8649 ft | 262 kts | 43° |
| 2026-05-05 19:26 | 32.95742 | -16.60445 | 9354 ft | 264 kts | 42° |
| 2026-05-05 19:26 | 32.96872 | -16.58752 | 10122 ft | 260 kts | 65° |
| 2026-05-05 19:27 | 32.97293 | -16.56694 | 10826 ft | 259 kts | 90° |
| 2026-05-05 19:27 | 32.96893 | -16.54568 | 11157 ft | 274 kts | 119° |
| 2026-05-05 19:27 | 32.96140 | -16.53352 | 11314 ft | 279 kts | 139° |
| 2026-05-05 19:27 | 32.93816 | -16.52077 | 11623 ft | 280 kts | 177° |
| 2026-05-05 19:28 | 32.91945 | -16.52368 | 11554 ft | 274 kts | 206° |
| 2026-05-05 19:28 | 32.90388 | -16.53629 | 11485 ft | 273 kts | 224° |
| 2026-05-05 19:28 | 32.88980 | -16.55156 | 11409 ft | 274 kts | 225° |
| 2026-05-05 19:28 | 32.88038 | -16.56199 | 11357 ft | 274 kts | 225° |
| 2026-05-05 19:29 | 32.86643 | -16.57749 | 11271 ft | 274 kts | 225° |
| 2026-05-05 19:29 | 32.85256 | -16.59303 | 11192 ft | 273 kts | 229° |
| 2026-05-05 19:29 | 32.84270 | -16.61163 | 11118 ft | 269 kts | 253° |
| 2026-05-05 19:29 | 32.84028 | -16.63334 | 11042 ft | 266 kts | 277° |
| 2026-05-05 19:30 | 32.84565 | -16.65416 | 10971 ft | 265 kts | 302° |
| 2026-05-05 19:30 | 32.85780 | -16.67038 | 10900 ft | 264 kts | 326° |
| 2026-05-05 19:30 | 32.87457 | -16.67908 | 10825 ft | 265 kts | 350° |
| 2026-05-05 19:30 | 32.89294 | -16.67868 | 10756 ft | 267 kts | 14° |
| 2026-05-05 19:31 | 32.90966 | -16.66917 | 10679 ft | 270 kts | 37° |
| 2026-05-05 19:31 | 32.92399 | -16.65465 | 10607 ft | 271 kts | 41° |
| 2026-05-05 19:31 | 32.93792 | -16.63950 | 10518 ft | 273 kts | 41° |
| 2026-05-05 19:31 | 32.95180 | -16.62405 | 10078 ft | 275 kts | 42° |
| 2026-05-05 19:32 | 32.96543 | -16.60786 | 9534 ft | 277 kts | 53° |
| 2026-05-05 19:32 | 32.97231 | -16.58687 | 8918 ft | 275 kts | 88° |
| 2026-05-05 19:32 | 32.96928 | -16.56496 | 8230 ft | 274 kts | 113° |
| 2026-05-05 19:32 | 32.95895 | -16.54614 | 7533 ft | 273 kts | 136° |
| 2026-05-05 19:33 | 32.94339 | -16.53363 | 6852 ft | 271 kts | 159° |
| 2026-05-05 19:33 | 32.92504 | -16.52985 | 6155 ft | 268 kts | 185° |
| 2026-05-05 19:33 | 32.90723 | -16.53557 | 5446 ft | 266 kts | 209° |
| 2026-05-05 19:33 | 32.89248 | -16.54866 | 4748 ft | 264 kts | 220° |
| 2026-05-05 19:34 | 32.87878 | -16.56326 | 4034 ft | 264 kts | 221° |
| 2026-05-05 19:34 | 32.86521 | -16.57827 | 3301 ft | 267 kts | 221° |
| 2026-05-05 19:34 | 32.85194 | -16.59272 | 3071 ft | 253 kts | 217° |
| 2026-05-05 19:35 | 32.82408 | -16.61720 | 3013 ft | 247 kts | 212° |
| 2026-05-05 19:35 | 32.80984 | -16.62875 | 3009 ft | 249 kts | 211° |
| 2026-05-05 19:35 | 32.79583 | -16.64005 | 3006 ft | 247 kts | 212° |
| 2026-05-05 19:35 | 32.78161 | -16.65160 | 3011 ft | 247 kts | 212° |
| 2026-05-05 19:36 | 32.76741 | -16.66323 | 3027 ft | 249 kts | 211° |
| 2026-05-05 19:36 | 32.75317 | -16.67493 | 2429 ft | 247 kts | 212° |
| 2026-05-05 19:36 | 32.73929 | -16.68638 | 1966 ft | 237 kts | 213° |
| 2026-05-05 19:36 | 32.72605 | -16.69730 | 1540 ft | 228 kts | 213° |
| 2026-05-05 19:37 | 32.71331 | -16.70780 | 1143 ft | 215 kts | 214° |
| 2026-05-05 19:37 | 32.70155 | -16.71748 | 808 ft | 195 kts | 214° |
| 2026-05-05 19:37 | 32.69097 | -16.72618 | 757 ft | 168 kts | 217° |
| 2026-05-05 19:37 | 32.68168 | -16.73419 | 1461 ft | 170 kts | 215° |
| 2026-05-05 19:38 | 32.67193 | -16.74331 | 1835 ft | 191 kts | 217° |
| 2026-05-05 19:38 | 32.66100 | -16.75359 | 2182 ft | 208 kts | 216° |
| 2026-05-05 19:38 | 32.64906 | -16.76476 | 2517 ft | 228 kts | 217° |
| 2026-05-05 19:38 | 32.63689 | -16.77392 | 2738 ft | 232 kts | 197° |
| 2026-05-05 19:39 | 32.62064 | -16.77582 | 2945 ft | 241 kts | 171° |
| 2026-05-05 19:39 | 32.60371 | -16.77496 | 3010 ft | 245 kts | 176° |
| 2026-05-05 19:39 | 32.58665 | -16.77486 | 2998 ft | 245 kts | 176° |
| 2026-05-05 19:39 | 32.56959 | -16.77494 | 3012 ft | 245 kts | 175° |
| 2026-05-05 19:40 | 32.55325 | -16.77075 | 3003 ft | 239 kts | 150° |
| 2026-05-05 19:40 | 32.54047 | -16.75924 | 3010 ft | 232 kts | 125° |
| 2026-05-05 19:40 | 32.53316 | -16.74265 | 3011 ft | 226 kts | 101° |
| 2026-05-05 19:40 | 32.53233 | -16.72436 | 2987 ft | 225 kts | 79° |
| 2026-05-05 19:41 | 32.53794 | -16.70725 | 2991 ft | 224 kts | 56° |
| 2026-05-05 19:41 | 32.54895 | -16.69424 | 3010 ft | 227 kts | 33° |
| 2026-05-05 19:41 | 32.56365 | -16.68730 | 3010 ft | 230 kts | 18° |
| 2026-05-05 19:41 | 32.57907 | -16.68226 | 3010 ft | 231 kts | 19° |
| 2026-05-05 19:42 | 32.59457 | -16.67718 | 2993 ft | 230 kts | 18° |
| 2026-05-05 19:42 | 32.61004 | -16.67210 | 3011 ft | 231 kts | 18° |
| 2026-05-05 19:42 | 32.62592 | -16.66685 | 3014 ft | 246 kts | 19° |
| 2026-05-05 19:42 | 32.64232 | -16.66139 | 2952 ft | 252 kts | 15° |
| 2026-05-05 19:43 | 32.65917 | -16.65585 | 2985 ft | 249 kts | 18° |
| 2026-05-05 19:43 | 32.67593 | -16.65035 | 3011 ft | 251 kts | 18° |
| 2026-05-05 19:43 | 32.69269 | -16.64483 | 3008 ft | 250 kts | 18° |
| 2026-05-05 19:43 | 32.70949 | -16.63925 | 3007 ft | 251 kts | 18° |
| 2026-05-05 19:44 | 32.72629 | -16.63368 | 3008 ft | 251 kts | 19° |
| 2026-05-05 19:44 | 32.74314 | -16.62807 | 3009 ft | 253 kts | 19° |
| 2026-05-05 19:44 | 32.75974 | -16.62257 | 2997 ft | 240 kts | 19° |
| 2026-05-05 19:44 | 32.77539 | -16.61744 | 3012 ft | 230 kts | 19° |
| 2026-05-05 19:45 | 32.79054 | -16.61243 | 3010 ft | 230 kts | 19° |
| 2026-05-05 19:45 | 32.80565 | -16.60741 | 3034 ft | 218 kts | 19° |
| 2026-05-05 19:45 | 32.81998 | -16.60264 | 3017 ft | 209 kts | 20° |
| 2026-05-05 19:45 | 32.83331 | -16.59899 | 3015 ft | 186 kts | 8° |
| 2026-05-05 19:46 | 32.84156 | -16.59978 | 3026 ft | 178 kts | 352° |
| 2026-05-05 19:46 | 32.85526 | -16.60992 | 3012 ft | 178 kts | 314° |
| 2026-05-05 19:46 | 32.86052 | -16.62322 | 3013 ft | 183 kts | 282° |
| 2026-05-05 19:46 | 32.85982 | -16.63821 | 3008 ft | 186 kts | 252° |
| 2026-05-05 19:47 | 32.85312 | -16.65103 | 3015 ft | 183 kts | 220° |
| 2026-05-05 19:47 | 32.84236 | -16.65839 | 3013 ft | 178 kts | 191° |
| 2026-05-05 19:47 | 32.83034 | -16.65890 | 3016 ft | 169 kts | 163° |
| 2026-05-05 19:47 | 32.82000 | -16.65339 | 3013 ft | 160 kts | 140° |
| 2026-05-05 19:48 | 32.81084 | -16.64658 | 3004 ft | 155 kts | 151° |
| 2026-05-05 19:48 | 32.80042 | -16.64380 | 3011 ft | 158 kts | 172° |
| 2026-05-05 19:48 | 32.78936 | -16.64605 | 3014 ft | 166 kts | 195° |
| 2026-05-05 19:48 | 32.77934 | -16.65322 | 3023 ft | 168 kts | 211° |
| 2026-05-05 19:49 | 32.76997 | -16.66097 | 3013 ft | 170 kts | 211° |
| 2026-05-05 19:49 | 32.76016 | -16.66905 | 2646 ft | 174 kts | 211° |
| 2026-05-05 19:49 | 32.75020 | -16.67728 | 2166 ft | 175 kts | 211° |
| 2026-05-05 19:49 | 32.74011 | -16.68563 | 1706 ft | 179 kts | 212° |
| 2026-05-05 19:50 | 32.72992 | -16.69405 | 1285 ft | 175 kts | 214° |
| 2026-05-05 19:50 | 32.72011 | -16.70209 | 1147 ft | 168 kts | 212° |
| 2026-05-05 19:50 | 32.71050 | -16.70995 | 1213 ft | 171 kts | 213° |
| 2026-05-05 19:50 | 32.70097 | -16.71789 | 1329 ft | 169 kts | 212° |
| 2026-05-05 19:51 | 32.69095 | -16.72640 | 950 ft | 179 kts | 217° |
| 2026-05-05 19:51 | 32.68129 | -16.73465 | 1057 ft | 172 kts | 213° |
| 2026-05-05 19:51 | 32.67178 | -16.74257 | 1462 ft | 162 kts | 211° |
| 2026-05-05 19:51 | 32.66202 | -16.74969 | 1807 ft | 170 kts | 207° |
| 2026-05-05 19:52 | 32.65161 | -16.75708 | 1438 ft | 176 kts | 210° |
| 2026-05-05 19:52 | 32.64207 | -16.76597 | 1162 ft | 172 kts | 230° |
| 2026-05-05 19:52 | 32.63589 | -16.77779 | 933 ft | 168 kts | 251° |
| 2026-05-05 19:52 | 32.63402 | -16.79093 | 621 ft | 155 kts | 284° |
| 2026-05-05 19:53 | 32.63715 | -16.80252 | 624 ft | 142 kts | 311° |
| 2026-05-05 19:53 | 32.64467 | -16.80925 | 798 ft | 135 kts | 349° |
| 2026-05-05 19:53 | 32.65371 | -16.80844 | 727 ft | 135 kts | 18° |
| 2026-05-05 19:53 | 32.66270 | -16.80513 | 569 ft | 135 kts | 16° |
| 2026-05-05 19:54 | 32.67161 | -16.80166 | 520 ft | 133 kts | 22° |
| 2026-05-05 19:54 | 32.67955 | -16.79578 | 563 ft | 137 kts | 44° |
| 2026-05-05 19:54 | 32.68630 | -16.78772 | 364 ft | 138 kts | 35° |
| 2026-05-05 19:54 | 32.69308 | -16.78026 | 198 ft | 126 kts | 43° |
| 2026-05-05 19:55 | 32.69830 | -16.77344 | 624 ft | 136 kts | 49° |
| 2026-05-05 19:55 | 32.70421 | -16.76458 | 1378 ft | 139 kts | 51° |
| 2026-05-05 19:55 | 32.71095 | -16.75553 | 1698 ft | 150 kts | 48° |
| 2026-05-05 19:55 | 32.71806 | -16.74605 | 1830 ft | 158 kts | 49° |
| 2026-05-05 19:56 | 32.72549 | -16.73636 | 1956 ft | 163 kts | 48° |
| 2026-05-05 19:56 | 32.73318 | -16.72631 | 2084 ft | 165 kts | 49° |
| 2026-05-05 19:56 | 32.74099 | -16.71620 | 2209 ft | 168 kts | 47° |
| 2026-05-05 19:56 | 32.74895 | -16.70563 | 2339 ft | 175 kts | 49° |
| 2026-05-05 19:57 | 32.75719 | -16.69482 | 2458 ft | 178 kts | 49° |
| 2026-05-05 19:57 | 32.76602 | -16.68352 | 2553 ft | 197 kts | 49° |
| 2026-05-05 19:57 | 32.77599 | -16.67093 | 2723 ft | 220 kts | 49° |
| 2026-05-05 19:57 | 32.78667 | -16.65729 | 3195 ft | 229 kts | 49° |
| 2026-05-05 19:58 | 32.79781 | -16.64321 | 3624 ft | 243 kts | 47° |
| 2026-05-05 19:58 | 32.80927 | -16.62837 | 4307 ft | 250 kts | 49° |
| 2026-05-05 19:58 | 32.82122 | -16.61284 | 4997 ft | 258 kts | 49° |
| 2026-05-05 19:58 | 32.83301 | -16.59638 | 5687 ft | 265 kts | 57° |
| 2026-05-05 19:59 | 32.83924 | -16.57572 | 6363 ft | 272 kts | 85° |
| 2026-05-05 19:59 | 32.83662 | -16.55339 | 7023 ft | 279 kts | 112° |
| 2026-05-05 19:59 | 32.82687 | -16.53330 | 7701 ft | 283 kts | 123° |
| 2026-05-05 19:59 | 32.81556 | -16.51393 | 8401 ft | 287 kts | 124° |
| 2026-05-05 20:00 | 32.80396 | -16.49444 | 9111 ft | 290 kts | 124° |
| 2026-05-05 20:00 | 32.79237 | -16.47498 | 9813 ft | 294 kts | 124° |
| 2026-05-05 20:00 | 32.78051 | -16.45501 | 10451 ft | 298 kts | 124° |
| 2026-05-05 20:00 | 32.76855 | -16.43474 | 11042 ft | 302 kts | 124° |
| 2026-05-05 20:01 | 32.75649 | -16.41405 | 11639 ft | 307 kts | 125° |
| 2026-05-05 20:01 | 32.74260 | -16.39475 | 12193 ft | 311 kts | 143° |
| 2026-05-05 20:01 | 32.72457 | -16.38014 | 12643 ft | 320 kts | 149° |
| 2026-05-05 20:01 | 32.70524 | -16.36528 | 12778 ft | 341 kts | 149° |
| 2026-05-05 20:02 | 32.68495 | -16.34972 | 13153 ft | 352 kts | 149° |
| 2026-05-05 20:02 | 32.66458 | -16.33404 | 13731 ft | 356 kts | 149° |
| 2026-05-05 20:02 | 32.64371 | -16.31796 | 14335 ft | 360 kts | 149° |
| 2026-05-05 20:02 | 32.62260 | -16.30169 | 14997 ft | 363 kts | 150° |
| 2026-05-05 20:03 | 32.60135 | -16.28533 | 15691 ft | 367 kts | 150° |
| 2026-05-05 20:03 | 32.57981 | -16.26876 | 16277 ft | 375 kts | 150° |
| 2026-05-05 20:03 | 32.55754 | -16.25167 | 16682 ft | 385 kts | 149° |
| 2026-05-05 20:03 | 32.53493 | -16.23432 | 17215 ft | 389 kts | 150° |
| 2026-05-05 20:04 | 32.51211 | -16.21680 | 17771 ft | 392 kts | 150° |
| 2026-05-05 20:04 | 32.48947 | -16.19941 | 18303 ft | 394 kts | 150° |
| 2026-05-05 20:04 | 32.46636 | -16.18166 | 18760 ft | 397 kts | 150° |
| 2026-05-05 20:04 | 32.44314 | -16.16386 | 19221 ft | 399 kts | 150° |
| 2026-05-05 20:05 | 32.41971 | -16.14594 | 19677 ft | 402 kts | 150° |
| 2026-05-05 20:05 | 32.39615 | -16.12794 | 20169 ft | 404 kts | 150° |
| 2026-05-05 20:05 | 32.37249 | -16.10989 | 20658 ft | 406 kts | 150° |
| 2026-05-05 20:05 | 32.34865 | -16.09168 | 21217 ft | 409 kts | 150° |
| 2026-05-05 20:06 | 32.32470 | -16.07336 | 21810 ft | 413 kts | 150° |
| 2026-05-05 20:06 | 32.30050 | -16.05486 | 22332 ft | 415 kts | 150° |
| 2026-05-05 20:06 | 32.27646 | -16.03653 | 22800 ft | 417 kts | 150° |
| 2026-05-05 20:06 | 32.25199 | -16.01790 | 23237 ft | 419 kts | 150° |
| 2026-05-05 20:07 | 32.22741 | -15.99919 | 23657 ft | 422 kts | 150° |
| 2026-05-05 20:07 | 32.20271 | -15.98035 | 23974 ft | 424 kts | 150° |
| 2026-05-05 20:07 | 32.17798 | -15.96150 | 24063 ft | 422 kts | 150° |
| 2026-05-05 20:07 | 32.15353 | -15.94286 | 24093 ft | 417 kts | 150° |
| 2026-05-05 20:08 | 32.12920 | -15.92434 | 24085 ft | 415 kts | 150° |
| 2026-05-05 20:08 | 32.10491 | -15.90590 | 24083 ft | 415 kts | 150° |
| 2026-05-05 20:08 | 32.08067 | -15.88752 | 24086 ft | 414 kts | 150° |
| 2026-05-05 20:08 | 32.05676 | -15.86943 | 24083 ft | 414 kts | 150° |
| 2026-05-05 20:09 | 32.03254 | -15.85105 | 24087 ft | 414 kts | 150° |
| 2026-05-05 20:09 | 32.00836 | -15.83267 | 24086 ft | 413 kts | 150° |
| 2026-05-05 20:09 | 31.98419 | -15.81430 | 24085 ft | 413 kts | 150° |
| 2026-05-05 20:09 | 31.96006 | -15.79602 | 24095 ft | 414 kts | 150° |
| 2026-05-05 20:10 | 31.93578 | -15.77767 | 24092 ft | 414 kts | 150° |
| 2026-05-05 20:10 | 31.91158 | -15.75942 | 24088 ft | 413 kts | 150° |
| 2026-05-05 20:10 | 31.88736 | -15.74119 | 24088 ft | 413 kts | 150° |
| 2026-05-05 20:10 | 31.86357 | -15.72326 | 24096 ft | 413 kts | 150° |
| 2026-05-05 20:11 | 31.83932 | -15.70499 | 24096 ft | 413 kts | 150° |
| 2026-05-05 20:11 | 31.81515 | -15.68676 | 24089 ft | 413 kts | 150° |
| 2026-05-05 20:11 | 31.79104 | -15.66859 | 24084 ft | 411 kts | 150° |
| 2026-05-05 20:11 | 31.76699 | -15.65046 | 24075 ft | 410 kts | 150° |
| 2026-05-05 20:12 | 31.74306 | -15.63240 | 24071 ft | 409 kts | 150° |
| 2026-05-05 20:12 | 31.71913 | -15.61435 | 24065 ft | 409 kts | 150° |
| 2026-05-05 20:12 | 31.69516 | -15.59632 | 24060 ft | 409 kts | 150° |
| 2026-05-05 20:12 | 31.67149 | -15.57854 | 24058 ft | 409 kts | 150° |
| 2026-05-05 20:13 | 31.64750 | -15.56053 | 24055 ft | 410 kts | 150° |
| 2026-05-05 20:13 | 31.62350 | -15.54253 | 24054 ft | 410 kts | 150° |
| 2026-05-05 20:13 | 31.59945 | -15.52453 | 24055 ft | 410 kts | 150° |
| 2026-05-05 20:13 | 31.57540 | -15.50654 | 24058 ft | 410 kts | 150° |
| 2026-05-05 20:14 | 31.55137 | -15.48856 | 24060 ft | 410 kts | 150° |
| 2026-05-05 20:14 | 31.52731 | -15.47055 | 24063 ft | 410 kts | 150° |
| 2026-05-05 20:14 | 31.50326 | -15.45253 | 24057 ft | 410 kts | 150° |
| 2026-05-05 20:14 | 31.47919 | -15.43451 | 24057 ft | 411 kts | 150° |
| 2026-05-05 20:15 | 31.45547 | -15.41676 | 24059 ft | 411 kts | 150° |
| 2026-05-05 20:15 | 31.43138 | -15.39876 | 24056 ft | 410 kts | 150° |
| 2026-05-05 20:15 | 31.40731 | -15.38079 | 24060 ft | 410 kts | 150° |
| 2026-05-05 20:15 | 31.38323 | -15.36284 | 24060 ft | 410 kts | 150° |
| 2026-05-05 20:16 | 31.35910 | -15.34512 | 24056 ft | 409 kts | 154° |
| 2026-05-05 20:16 | 31.33315 | -15.33197 | 24056 ft | 404 kts | 166° |
| 2026-05-05 20:16 | 31.30574 | -15.32590 | 24054 ft | 400 kts | 179° |
| 2026-05-05 20:16 | 31.27809 | -15.32700 | 24051 ft | 396 kts | 191° |
| 2026-05-05 20:17 | 31.25187 | -15.33474 | 24055 ft | 393 kts | 202° |
| 2026-05-05 20:17 | 31.22731 | -15.34854 | 24054 ft | 392 kts | 210° |
| 2026-05-05 20:17 | 31.20345 | -15.36389 | 24053 ft | 392 kts | 210° |
| 2026-05-05 20:17 | 31.17951 | -15.37920 | 24055 ft | 392 kts | 210° |
| 2026-05-05 20:18 | 31.15555 | -15.39440 | 24053 ft | 393 kts | 210° |
| 2026-05-05 20:18 | 31.13153 | -15.40965 | 24054 ft | 393 kts | 210° |
| 2026-05-05 20:18 | 31.10752 | -15.42492 | 24057 ft | 393 kts | 210° |
| 2026-05-05 20:18 | 31.08385 | -15.43998 | 24056 ft | 393 kts | 210° |
| 2026-05-05 20:19 | 31.05986 | -15.45523 | 24051 ft | 393 kts | 210° |
| 2026-05-05 20:19 | 31.03588 | -15.47048 | 24056 ft | 393 kts | 210° |
| 2026-05-05 20:19 | 31.01188 | -15.48573 | 24054 ft | 393 kts | 210° |
| 2026-05-05 20:19 | 30.98785 | -15.50094 | 24053 ft | 393 kts | 210° |
| 2026-05-05 20:20 | 30.96384 | -15.51614 | 24054 ft | 393 kts | 210° |
| 2026-05-05 20:20 | 30.93980 | -15.53135 | 24054 ft | 393 kts | 210° |
| 2026-05-05 20:20 | 30.91578 | -15.54656 | 24055 ft | 393 kts | 210° |
| 2026-05-05 20:20 | 30.89210 | -15.56160 | 24055 ft | 393 kts | 210° |
| 2026-05-05 20:21 | 30.86810 | -15.57680 | 24055 ft | 393 kts | 210° |
| 2026-05-05 20:21 | 30.84411 | -15.59197 | 24051 ft | 393 kts | 210° |
| 2026-05-05 20:21 | 30.82010 | -15.60715 | 24054 ft | 393 kts | 210° |
| 2026-05-05 20:21 | 30.79615 | -15.62228 | 24056 ft | 392 kts | 210° |
| 2026-05-05 20:22 | 30.77209 | -15.63744 | 24059 ft | 392 kts | 210° |
| 2026-05-05 20:22 | 30.74812 | -15.65258 | 24057 ft | 392 kts | 210° |
| 2026-05-05 20:22 | 30.72416 | -15.66770 | 24060 ft | 392 kts | 210° |
| 2026-05-05 20:22 | 30.70051 | -15.68263 | 24058 ft | 392 kts | 210° |
| 2026-05-05 20:23 | 30.67657 | -15.69776 | 24059 ft | 392 kts | 210° |
| 2026-05-05 20:23 | 30.65261 | -15.71287 | 24060 ft | 392 kts | 210° |